createdAt,value
2017-05-05T00:00:09.006Z,8.12
2017-05-05T00:00:49.678Z,8.15
2017-05-05T00:01:30.364Z,8.2
2017-05-05T00:02:10.943Z,8.13
2017-05-05T00:02:51.597Z,8.13
2017-05-05T00:03:32.177Z,8.18
2017-05-05T00:04:12.773Z,8.13
2017-05-05T00:04:53.361Z,8.23
2017-05-05T00:05:33.992Z,8.19
2017-05-05T00:06:14.587Z,8.12
2017-05-05T00:06:55.179Z,8.15
2017-05-05T00:07:35.772Z,8.12
2017-05-05T00:08:16.397Z,8.15
2017-05-05T00:08:57.004Z,8.18
2017-05-05T00:09:37.601Z,8.18
2017-05-05T00:10:18.174Z,8.16
2017-05-05T00:10:58.812Z,8.12
2017-05-05T00:11:39.496Z,8.19
2017-05-05T00:12:20.058Z,8.15
2017-05-05T00:13:00.670Z,8.18
2017-05-05T00:13:42.329Z,8.13
2017-05-05T00:14:22.901Z,8.13
2017-05-05T00:15:03.556Z,8.15
2017-05-05T00:15:44.281Z,8.23
2017-05-05T00:16:24.890Z,8.16
2017-05-05T00:17:05.929Z,8.18
2017-05-05T00:17:46.523Z,8.15
2017-05-05T00:18:27.110Z,8.18
2017-05-05T00:19:07.679Z,8.13
2017-05-05T00:19:48.337Z,8.13
2017-05-05T00:20:29.023Z,8.1
2017-05-05T00:21:09.664Z,8.13
2017-05-05T00:21:50.295Z,8.13
2017-05-05T00:22:30.935Z,8.18
2017-05-05T00:23:11.605Z,8.18
2017-05-05T00:23:52.241Z,8.18
2017-05-05T00:24:33.007Z,8.13
2017-05-05T00:25:13.656Z,8.13
2017-05-05T00:25:54.299Z,8.15
2017-05-05T00:26:34.888Z,8.1
2017-05-05T00:27:15.518Z,8.1
2017-05-05T00:27:56.178Z,8.12
2017-05-05T00:28:36.731Z,8.12
2017-05-05T00:29:17.426Z,8.18
2017-05-05T00:29:58.105Z,8.19
2017-05-05T00:30:38.688Z,8.09
2017-05-05T00:31:19.322Z,8.16
2017-05-05T00:31:59.984Z,8.16
2017-05-05T00:32:40.637Z,8.12
2017-05-05T00:33:21.284Z,8.15
2017-05-05T00:34:02.962Z,8.13
2017-05-05T00:34:43.628Z,8.09
2017-05-05T00:35:24.304Z,8.13
2017-05-05T00:36:04.899Z,8.15
2017-05-05T00:36:45.877Z,8.09
2017-05-05T00:37:26.528Z,8.13
2017-05-05T00:38:07.130Z,8.16
2017-05-05T00:38:47.814Z,8.1
2017-05-05T00:39:29.767Z,8.1
2017-05-05T00:40:10.368Z,8.13
2017-05-05T00:40:50.958Z,8.13
2017-05-05T00:41:31.559Z,8.13
2017-05-05T00:42:12.138Z,8.18
2017-05-05T00:42:52.782Z,8.12
2017-05-05T00:43:33.400Z,8.12
2017-05-05T00:44:14.065Z,8.18
2017-05-05T00:44:54.640Z,8.13
2017-05-05T00:45:35.307Z,8.18
2017-05-05T00:46:16.344Z,8.13
2017-05-05T00:46:57.041Z,8.15
2017-05-05T00:47:37.748Z,8.16
2017-05-05T00:48:19.331Z,8.12
2017-05-05T00:48:59.994Z,8.13
2017-05-05T00:49:40.651Z,8.13
2017-05-05T00:50:21.285Z,8.13
2017-05-05T00:51:01.940Z,8.12
2017-05-05T00:51:42.589Z,8.15
2017-05-05T00:52:23.238Z,8.19
2017-05-05T00:53:04.821Z,8.12
2017-05-05T00:53:45.592Z,8.12
2017-05-05T00:54:26.638Z,8.12
2017-05-05T00:55:07.292Z,8.1
2017-05-05T00:55:47.942Z,8.1
2017-05-05T00:56:28.620Z,8.12
2017-05-05T00:57:09.262Z,8.13
2017-05-05T00:57:49.914Z,8.1
2017-05-05T00:58:30.570Z,8.08
2017-05-05T00:59:11.222Z,8.09
2017-05-05T00:59:51.885Z,8.12
2017-05-05T01:00:32.523Z,8.06
2017-05-05T01:01:13.180Z,8.06
2017-05-05T01:01:53.908Z,8.09
2017-05-05T01:02:34.475Z,8.1
2017-05-05T01:03:15.117Z,8.12
2017-05-05T01:03:55.817Z,8.05
2017-05-05T01:04:36.448Z,8.12
2017-05-05T01:05:17.087Z,8.12
2017-05-05T01:05:57.759Z,8.08
2017-05-05T01:06:38.410Z,8.1
2017-05-05T01:07:19.063Z,8.16
2017-05-05T01:07:59.723Z,8.13
2017-05-05T01:08:40.357Z,8.1
2017-05-05T01:09:21.020Z,8.15
2017-05-05T01:10:01.663Z,8.12
2017-05-05T01:10:42.298Z,8.13
2017-05-05T01:11:22.952Z,8.09
2017-05-05T01:12:03.497Z,8.13
2017-05-05T01:12:44.168Z,8.15
2017-05-05T01:13:24.769Z,8.13
2017-05-05T01:14:05.357Z,8.16
2017-05-05T01:14:45.938Z,8.18
2017-05-05T01:15:26.576Z,8.16
2017-05-05T01:16:07.165Z,8.09
2017-05-05T01:16:48.788Z,8.06
2017-05-05T01:17:29.437Z,8.18
2017-05-05T01:18:11.026Z,8.13
2017-05-05T01:18:51.619Z,8.12
2017-05-05T01:19:32.233Z,8.1
2017-05-05T01:20:12.795Z,8.1
2017-05-05T01:20:53.453Z,8.1
2017-05-05T01:21:34.133Z,8.12
2017-05-05T01:22:14.742Z,8.13
2017-05-05T01:22:55.307Z,8.12
2017-05-05T01:23:35.966Z,8.16
2017-05-05T01:24:16.543Z,8.15
2017-05-05T01:24:57.141Z,8.13
2017-05-05T01:25:37.714Z,8.19
2017-05-05T01:26:20.714Z,8.16
2017-05-05T01:27:02.320Z,8.15
2017-05-05T01:27:43.540Z,8.15
2017-05-05T01:28:24.109Z,8.15
2017-05-05T01:29:04.785Z,8.13
2017-05-05T01:29:45.448Z,8.15
2017-05-05T01:30:26.054Z,8.12
2017-05-05T01:31:06.617Z,8.13
2017-05-05T01:31:47.270Z,8.09
2017-05-05T01:32:27.924Z,8.12
2017-05-05T01:33:08.575Z,8.15
2017-05-05T01:33:49.230Z,8.16
2017-05-05T01:34:29.883Z,8.1
2017-05-05T01:35:10.532Z,8.1
2017-05-05T01:35:51.120Z,8.15
2017-05-05T01:36:31.721Z,8.08
2017-05-05T01:37:12.288Z,8.12
2017-05-05T01:37:52.958Z,8.16
2017-05-05T01:38:33.623Z,8.05
2017-05-05T01:39:14.233Z,8.09
2017-05-05T01:39:54.791Z,8.1
2017-05-05T01:40:35.447Z,8.12
2017-05-05T01:41:16.097Z,8.08
2017-05-05T01:41:56.860Z,8.09
2017-05-05T01:42:37.496Z,8.16
2017-05-05T01:43:19.099Z,8.15
2017-05-05T01:43:59.751Z,8.1
2017-05-05T01:44:40.391Z,8.12
2017-05-05T01:45:21.051Z,8.09
2017-05-05T01:46:01.693Z,8.09
2017-05-05T01:46:42.389Z,8.08
2017-05-05T01:47:23.004Z,8.08
2017-05-05T01:48:03.683Z,8.13
2017-05-05T01:48:44.310Z,8.09
2017-05-05T01:49:24.959Z,8.09
2017-05-05T01:50:05.620Z,8.09
2017-05-05T01:50:47.390Z,8.13
2017-05-05T01:51:28.061Z,8.06
2017-05-05T01:52:08.701Z,8.12
2017-05-05T01:52:51.298Z,8.08
2017-05-05T01:53:32.986Z,8.05
2017-05-05T01:54:13.632Z,8.12
2017-05-05T01:54:54.704Z,8.08
2017-05-05T01:55:35.357Z,8.09
2017-05-05T01:56:16.043Z,8.09
2017-05-05T01:56:56.640Z,8.1
2017-05-05T01:57:37.198Z,8.1
2017-05-05T01:58:17.845Z,8.15
2017-05-05T01:58:58.455Z,8.06
2017-05-05T01:59:39.150Z,8.08
2017-05-05T02:00:19.722Z,8.08
2017-05-05T02:01:00.354Z,8.08
2017-05-05T02:01:41.014Z,8.09
2017-05-05T02:02:21.666Z,8.1
2017-05-05T02:03:02.333Z,8.1
2017-05-05T02:03:42.984Z,8.12
2017-05-05T02:04:23.636Z,8.09
2017-05-05T02:05:05.308Z,8.12
2017-05-05T02:05:45.955Z,8.09
2017-05-05T02:06:27.569Z,8.05
2017-05-05T02:07:09.195Z,8.06
2017-05-05T02:07:49.761Z,8.06
2017-05-05T02:08:30.420Z,8.1
2017-05-05T02:09:11.007Z,8.12
2017-05-05T02:09:51.602Z,8.08
2017-05-05T02:10:32.181Z,8.06
2017-05-05T02:11:12.836Z,8.09
2017-05-05T02:11:53.478Z,8.08
2017-05-05T02:12:34.142Z,8.08
2017-05-05T02:13:14.767Z,8.06
2017-05-05T02:13:55.443Z,8.1
2017-05-05T02:14:36.086Z,8.05
2017-05-05T02:15:16.740Z,8.1
2017-05-05T02:15:57.333Z,8.09
2017-05-05T02:16:37.929Z,8.06
2017-05-05T02:17:18.495Z,8.08
2017-05-05T02:17:59.134Z,8.12
2017-05-05T02:18:39.728Z,8.05
2017-05-05T02:19:20.332Z,8.08
2017-05-05T02:20:00.893Z,8.1
2017-05-05T02:20:41.550Z,8.08
2017-05-05T02:21:22.203Z,8.09
2017-05-05T02:22:02.857Z,8.08
2017-05-05T02:22:43.529Z,8.12
2017-05-05T02:23:24.160Z,8.12
2017-05-05T02:24:04.822Z,8.09
2017-05-05T02:24:45.464Z,8.06
2017-05-05T02:25:26.118Z,8.08
2017-05-05T02:26:06.775Z,8.05
2017-05-05T02:26:47.447Z,8.12
2017-05-05T02:27:28.083Z,8.08
2017-05-05T02:28:08.748Z,8.06
2017-05-05T02:28:49.391Z,8.06
2017-05-05T02:29:30.031Z,8.01
2017-05-05T02:30:10.697Z,8.06
2017-05-05T02:30:51.288Z,7.97
2017-05-05T02:31:31.886Z,7.98
2017-05-05T02:32:12.439Z,7.94
2017-05-05T02:32:53.103Z,7.98
2017-05-05T02:33:34.105Z,8.01
2017-05-05T02:34:14.700Z,7.97
2017-05-05T02:34:55.277Z,8.05
2017-05-05T02:35:36.943Z,7.98
2017-05-05T02:36:18.565Z,7.95
2017-05-05T02:37:00.184Z,8.03
2017-05-05T02:37:40.786Z,8.09
2017-05-05T02:38:21.387Z,8.05
2017-05-05T02:39:01.985Z,8.01
2017-05-05T02:39:42.587Z,8.08
2017-05-05T02:40:23.167Z,8.08
2017-05-05T02:41:03.801Z,7.98
2017-05-05T02:41:44.471Z,8.01
2017-05-05T02:42:25.120Z,8.03
2017-05-05T02:43:05.775Z,8.08
2017-05-05T02:43:46.436Z,8
2017-05-05T02:44:28.098Z,7.95
2017-05-05T02:45:08.748Z,8.03
2017-05-05T02:45:49.414Z,7.95
2017-05-05T02:46:30.096Z,8.06
2017-05-05T02:47:10.701Z,8.08
2017-05-05T02:47:51.295Z,8.01
2017-05-05T02:48:31.923Z,8.06
2017-05-05T02:49:12.607Z,8.01
2017-05-05T02:49:53.198Z,8.03
2017-05-05T02:50:33.757Z,7.97
2017-05-05T02:51:14.339Z,7.95
2017-05-05T02:51:54.984Z,8
2017-05-05T02:52:36.655Z,8.03
2017-05-05T02:53:17.305Z,7.94
2017-05-05T02:53:57.957Z,8.05
2017-05-05T02:54:38.629Z,8.09
2017-05-05T02:55:19.263Z,8.03
2017-05-05T02:55:59.916Z,8.05
2017-05-05T02:56:40.568Z,7.97
2017-05-05T02:57:21.218Z,7.97
2017-05-05T02:58:01.872Z,7.98
2017-05-05T02:58:42.532Z,7.98
2017-05-05T02:59:23.186Z,8
2017-05-05T03:00:03.848Z,8
2017-05-05T03:00:44.493Z,8
2017-05-05T03:01:26.163Z,7.93
2017-05-05T03:02:06.812Z,7.94
2017-05-05T03:02:47.464Z,8.06
2017-05-05T03:03:28.126Z,7.98
2017-05-05T03:04:08.804Z,8.03
2017-05-05T03:04:49.366Z,7.97
2017-05-05T03:05:29.984Z,8.01
2017-05-05T03:06:10.633Z,8.05
2017-05-05T03:06:51.282Z,8.03
2017-05-05T03:07:31.939Z,8.01
2017-05-05T03:08:12.587Z,8.01
2017-05-05T03:08:53.238Z,8.01
2017-05-05T03:09:33.893Z,8.03
2017-05-05T03:10:14.556Z,7.98
2017-05-05T03:10:55.206Z,7.95
2017-05-05T03:11:35.789Z,7.95
2017-05-05T03:12:16.488Z,7.94
2017-05-05T03:12:57.048Z,8.01
2017-05-05T03:13:37.707Z,8
2017-05-05T03:14:18.301Z,8.05
2017-05-05T03:14:58.896Z,8.05
2017-05-05T03:15:39.469Z,7.98
2017-05-05T03:16:20.118Z,8.03
2017-05-05T03:17:00.709Z,8.01
2017-05-05T03:17:41.304Z,7.97
2017-05-05T03:18:21.909Z,7.95
2017-05-05T03:19:02.525Z,7.95
2017-05-05T03:19:43.220Z,8
2017-05-05T03:20:23.817Z,7.97
2017-05-05T03:21:04.389Z,7.97
2017-05-05T03:21:45.036Z,8.01
2017-05-05T03:22:25.673Z,8
2017-05-05T03:23:06.239Z,8.01
2017-05-05T03:23:47.302Z,8
2017-05-05T03:24:27.933Z,7.98
2017-05-05T03:25:08.527Z,8.03
2017-05-05T03:25:49.545Z,8.03
2017-05-05T03:26:30.226Z,7.9
2017-05-05T03:27:10.870Z,8.05
2017-05-05T03:27:51.523Z,8.08
2017-05-05T03:28:32.184Z,7.97
2017-05-05T03:29:12.832Z,7.95
2017-05-05T03:29:53.500Z,7.98
2017-05-05T03:30:34.135Z,7.98
2017-05-05T03:31:14.829Z,7.94
2017-05-05T03:31:55.424Z,7.91
2017-05-05T03:32:36.008Z,7.91
2017-05-05T03:33:16.644Z,7.97
2017-05-05T03:33:57.235Z,8.01
2017-05-05T03:34:37.833Z,7.97
2017-05-05T03:35:18.399Z,7.93
2017-05-05T03:35:59.062Z,8
2017-05-05T03:36:39.644Z,7.87
2017-05-05T03:37:20.243Z,8
2017-05-05T03:38:00.853Z,7.97
2017-05-05T03:38:41.459Z,7.94
2017-05-05T03:39:22.048Z,7.94
2017-05-05T03:40:02.652Z,7.97
2017-05-05T03:40:43.214Z,8
2017-05-05T03:41:23.791Z,7.97
2017-05-05T03:42:04.849Z,7.85
2017-05-05T03:42:45.788Z,7.95
2017-05-05T03:43:26.899Z,7.83
2017-05-05T03:44:07.503Z,7.97
2017-05-05T03:44:48.151Z,7.88
2017-05-05T03:45:28.810Z,7.95
2017-05-05T03:46:09.460Z,7.87
2017-05-05T03:46:50.118Z,7.9
2017-05-05T03:47:30.764Z,7.77
2017-05-05T03:48:11.416Z,7.9
2017-05-05T03:48:52.067Z,7.9
2017-05-05T03:49:32.725Z,7.9
2017-05-05T03:50:13.373Z,7.9
2017-05-05T03:50:54.055Z,7.9
2017-05-05T03:51:34.710Z,7.91
2017-05-05T03:52:15.339Z,7.9
2017-05-05T03:52:55.990Z,7.88
2017-05-05T03:53:37.089Z,7.94
2017-05-05T03:54:17.703Z,7.93
2017-05-05T03:54:58.364Z,7.85
2017-05-05T03:55:39.035Z,7.9
2017-05-05T03:56:19.708Z,7.94
2017-05-05T03:57:00.715Z,7.93
2017-05-05T03:57:41.303Z,7.83
2017-05-05T03:58:21.933Z,7.9
2017-05-05T03:59:02.519Z,7.87
2017-05-05T03:59:43.120Z,7.87
2017-05-05T04:00:23.703Z,7.82
2017-05-05T04:01:04.339Z,7.88
2017-05-05T04:01:44.934Z,7.8
2017-05-05T04:02:25.532Z,7.94
2017-05-05T04:03:06.106Z,7.85
2017-05-05T04:03:48.156Z,7.85
2017-05-05T04:04:28.771Z,7.85
2017-05-05T04:05:09.372Z,7.82
2017-05-05T04:05:49.935Z,7.88
2017-05-05T04:06:31.833Z,7.93
2017-05-05T04:07:12.454Z,7.87
2017-05-05T04:07:53.022Z,7.88
2017-05-05T04:08:33.682Z,7.87
2017-05-05T04:09:14.313Z,7.93
2017-05-05T04:09:54.880Z,7.85
2017-05-05T04:10:35.550Z,7.91
2017-05-05T04:11:16.172Z,7.9
2017-05-05T04:11:56.823Z,7.93
2017-05-05T04:12:37.882Z,7.91
2017-05-05T04:13:18.536Z,7.93
2017-05-05T04:13:59.191Z,7.91
2017-05-05T04:14:39.841Z,7.98
2017-05-05T04:15:20.496Z,8
2017-05-05T04:16:01.108Z,7.93
2017-05-05T04:16:41.732Z,7.9
2017-05-05T04:17:22.406Z,7.93
2017-05-05T04:18:03.006Z,7.91
2017-05-05T04:18:43.596Z,7.94
2017-05-05T04:19:24.244Z,7.97
2017-05-05T04:20:04.914Z,7.94
2017-05-05T04:20:45.515Z,8.01
2017-05-05T04:21:26.061Z,7.91
2017-05-05T04:22:06.736Z,7.93
2017-05-05T04:22:47.333Z,7.91
2017-05-05T04:23:27.920Z,7.94
2017-05-05T04:24:08.504Z,7.79
2017-05-05T04:24:49.152Z,7.9
2017-05-05T04:25:29.844Z,7.9
2017-05-05T04:26:10.426Z,7.88
2017-05-05T04:26:51.080Z,7.94
2017-05-05T04:27:31.734Z,7.91
2017-05-05T04:28:12.385Z,7.88
2017-05-05T04:28:53.040Z,7.93
2017-05-05T04:29:33.692Z,7.97
2017-05-05T04:30:14.348Z,7.9
2017-05-05T04:30:55.002Z,7.88
2017-05-05T04:31:35.650Z,7.91
2017-05-05T04:32:16.306Z,7.94
2017-05-05T04:32:56.959Z,7.93
2017-05-05T04:33:37.618Z,7.9
2017-05-05T04:34:18.264Z,7.9
2017-05-05T04:34:58.914Z,7.88
2017-05-05T04:35:39.487Z,7.94
2017-05-05T04:36:20.159Z,7.91
2017-05-05T04:37:00.830Z,7.85
2017-05-05T04:37:41.428Z,7.87
2017-05-05T04:38:21.975Z,7.83
2017-05-05T04:39:02.660Z,7.88
2017-05-05T04:39:43.259Z,7.9
2017-05-05T04:40:23.936Z,7.9
2017-05-05T04:41:04.530Z,7.91
2017-05-05T04:41:45.168Z,7.9
2017-05-05T04:42:25.817Z,7.88
2017-05-05T04:43:06.464Z,7.91
2017-05-05T04:43:47.120Z,7.94
2017-05-05T04:44:27.781Z,7.95
2017-05-05T04:45:08.424Z,8
2017-05-05T04:45:49.081Z,8.01
2017-05-05T04:46:29.733Z,8.01
2017-05-05T04:47:10.391Z,7.98
2017-05-05T04:47:51.054Z,7.98
2017-05-05T04:48:31.709Z,8.01
2017-05-05T04:49:12.353Z,7.98
2017-05-05T04:49:52.991Z,7.94
2017-05-05T04:50:33.654Z,8.05
2017-05-05T04:51:14.305Z,8.05
2017-05-05T04:51:54.966Z,8
2017-05-05T04:52:35.612Z,8.01
2017-05-05T04:53:16.281Z,7.98
2017-05-05T04:53:56.923Z,7.98
2017-05-05T04:54:37.575Z,8
2017-05-05T04:55:18.224Z,8.01
2017-05-05T04:55:58.886Z,8.03
2017-05-05T04:56:39.561Z,7.97
2017-05-05T04:57:20.570Z,7.97
2017-05-05T04:58:01.144Z,8.05
2017-05-05T04:58:41.846Z,8
2017-05-05T04:59:22.480Z,8.01
2017-05-05T05:00:03.075Z,8
2017-05-05T05:00:43.649Z,7.94
2017-05-05T05:01:24.342Z,7.97
2017-05-05T05:02:04.991Z,7.97
2017-05-05T05:02:45.587Z,8.01
2017-05-05T05:03:26.177Z,7.98
2017-05-05T05:04:06.826Z,8.01
2017-05-05T05:04:47.511Z,8.05
2017-05-05T05:05:28.104Z,8.06
2017-05-05T05:06:08.756Z,7.95
2017-05-05T05:06:49.410Z,7.98
2017-05-05T05:07:30.056Z,8.09
2017-05-05T05:08:10.733Z,8.05
2017-05-05T05:08:51.381Z,7.98
2017-05-05T05:09:32.013Z,8.09
2017-05-05T05:10:12.676Z,7.98
2017-05-05T05:10:53.244Z,8.08
2017-05-05T05:11:33.906Z,7.97
2017-05-05T05:12:14.597Z,7.97
2017-05-05T05:12:55.287Z,8.05
2017-05-05T05:13:35.847Z,8.03
2017-05-05T05:14:16.504Z,8
2017-05-05T05:14:57.207Z,8.03
2017-05-05T05:15:37.913Z,8.09
2017-05-05T05:16:18.550Z,8.03
2017-05-05T05:16:59.205Z,8.1
2017-05-05T05:17:40.999Z,8.05
2017-05-05T05:18:21.639Z,8
2017-05-05T05:19:02.297Z,8
2017-05-05T05:19:42.944Z,8.09
2017-05-05T05:20:23.602Z,8.08
2017-05-05T05:21:04.156Z,8.03
2017-05-05T05:21:44.808Z,8.06
2017-05-05T05:22:25.461Z,8.05
2017-05-05T05:23:06.010Z,8.01
2017-05-05T05:23:46.681Z,8
2017-05-05T05:24:27.301Z,8.05
2017-05-05T05:25:07.868Z,8.01
2017-05-05T05:25:48.527Z,7.98
2017-05-05T05:26:29.164Z,8.09
2017-05-05T05:27:09.813Z,7.98
2017-05-05T05:27:50.474Z,8
2017-05-05T05:28:31.131Z,8.09
2017-05-05T05:29:11.773Z,8.03
2017-05-05T05:29:52.437Z,8.05
2017-05-05T05:30:33.080Z,8.06
2017-05-05T05:31:13.659Z,7.98
2017-05-05T05:31:54.292Z,8.05
2017-05-05T05:32:34.896Z,8.01
2017-05-05T05:33:15.495Z,8.05
2017-05-05T05:33:56.030Z,8.03
2017-05-05T05:34:36.736Z,8.1
2017-05-05T05:35:17.397Z,8.12
2017-05-05T05:35:57.979Z,8.16
2017-05-05T05:36:38.564Z,8.06
2017-05-05T05:37:19.194Z,8.06
2017-05-05T05:37:59.782Z,8.12
2017-05-05T05:38:40.431Z,8.08
2017-05-05T05:39:21.165Z,8.1
2017-05-05T05:40:01.768Z,8.15
2017-05-05T05:40:42.524Z,8.19
2017-05-05T05:41:23.224Z,8.13
2017-05-05T05:42:03.803Z,8.16
2017-05-05T05:42:44.454Z,8.13
2017-05-05T05:43:25.104Z,8.12
2017-05-05T05:44:05.735Z,8.12
2017-05-05T05:44:46.389Z,8.09
2017-05-05T05:45:27.044Z,8.19
2017-05-05T05:46:07.717Z,8.1
2017-05-05T05:46:48.371Z,8.1
2017-05-05T05:47:29.013Z,8.15
2017-05-05T05:48:09.669Z,8.06
2017-05-05T05:48:50.327Z,8.06
2017-05-05T05:49:30.960Z,8.1
2017-05-05T05:50:11.614Z,8.15
2017-05-05T05:50:52.285Z,8.1
2017-05-05T05:51:32.924Z,8.06
2017-05-05T05:52:13.573Z,8.12
2017-05-05T05:52:54.225Z,8.15
2017-05-05T05:53:34.898Z,8.1
2017-05-05T05:54:15.537Z,8.12
2017-05-05T05:54:56.209Z,8.1
2017-05-05T05:55:36.836Z,8.18
2017-05-05T05:56:17.504Z,8.13
2017-05-05T05:56:58.138Z,8.19
2017-05-05T05:57:40.251Z,8.18
2017-05-05T05:58:20.888Z,8.1
2017-05-05T05:59:01.541Z,8.15
2017-05-05T05:59:42.211Z,8.1
2017-05-05T06:00:22.861Z,8.12
2017-05-05T06:01:03.896Z,8.1
2017-05-05T06:01:44.567Z,8.16
2017-05-05T06:02:25.233Z,8.08
2017-05-05T06:03:05.885Z,8.12
2017-05-05T06:03:46.509Z,8.12
2017-05-05T06:04:27.187Z,8.1
2017-05-05T06:05:08.847Z,8.08
2017-05-05T06:05:50.544Z,8.08
2017-05-05T06:06:31.180Z,8.15
2017-05-05T06:07:12.847Z,8.12
2017-05-05T06:07:53.515Z,8.13
2017-05-05T06:08:34.181Z,8.09
2017-05-05T06:09:14.908Z,8.08
2017-05-05T06:09:55.585Z,8.13
2017-05-05T06:10:36.247Z,8.06
2017-05-05T06:11:16.879Z,8.13
2017-05-05T06:11:57.556Z,8
2017-05-05T06:12:38.307Z,8.05
2017-05-05T06:13:18.933Z,8.09
2017-05-05T06:13:59.607Z,8.09
2017-05-05T06:14:40.248Z,8.1
2017-05-05T06:15:20.906Z,8.06
2017-05-05T06:16:01.570Z,8.1
2017-05-05T06:16:42.221Z,8.09
2017-05-05T06:17:22.845Z,8.05
2017-05-05T06:18:03.537Z,8.1
2017-05-05T06:18:44.183Z,8.15
2017-05-05T06:19:24.927Z,8.09
2017-05-05T06:20:05.589Z,8.12
2017-05-05T06:20:46.224Z,8.09
2017-05-05T06:21:26.882Z,8.12
2017-05-05T06:22:07.528Z,8.13
2017-05-05T06:22:48.179Z,8.15
2017-05-05T06:23:28.839Z,8.09
2017-05-05T06:24:09.532Z,8.09
2017-05-05T06:24:50.261Z,8.13
2017-05-05T06:25:30.911Z,8.15
2017-05-05T06:26:12.594Z,8.19
2017-05-05T06:26:53.235Z,8.12
2017-05-05T06:27:33.911Z,8.19
2017-05-05T06:28:14.643Z,8.15
2017-05-05T06:28:55.635Z,8.13
2017-05-05T06:29:36.365Z,8.2
2017-05-05T06:30:17.002Z,8.26
2017-05-05T06:30:57.682Z,8.15
2017-05-05T06:31:38.427Z,8.23
2017-05-05T06:32:19.080Z,8.24
2017-05-05T06:32:59.723Z,8.24
2017-05-05T06:33:40.386Z,8.27
2017-05-05T06:34:21.040Z,8.24
2017-05-05T06:35:01.779Z,8.34
2017-05-05T06:35:42.488Z,8.31
2017-05-05T06:36:23.202Z,8.26
2017-05-05T06:37:03.884Z,8.31
2017-05-05T06:37:44.582Z,8.26
2017-05-05T06:38:25.133Z,8.28
2017-05-05T06:39:06.831Z,8.26
2017-05-05T06:39:47.521Z,8.26
2017-05-05T06:40:28.219Z,8.3
2017-05-05T06:41:08.775Z,8.26
2017-05-05T06:41:50.445Z,8.31
2017-05-05T06:42:31.129Z,8.31
2017-05-05T06:43:11.816Z,8.34
2017-05-05T06:43:52.529Z,8.38
2017-05-05T06:44:33.195Z,8.38
2017-05-05T06:45:13.841Z,8.41
2017-05-05T06:45:54.545Z,8.38
2017-05-05T06:46:37.174Z,8.28
2017-05-05T06:47:17.861Z,8.3
2017-05-05T06:47:58.608Z,8.36
2017-05-05T06:48:39.231Z,8.37
2017-05-05T06:49:19.925Z,8.42
2017-05-05T06:50:00.553Z,8.44
2017-05-05T06:50:41.207Z,8.41
2017-05-05T06:51:21.861Z,8.42
2017-05-05T06:52:03.525Z,8.44
2017-05-05T06:52:44.197Z,8.38
2017-05-05T06:53:24.959Z,8.45
2017-05-05T06:54:05.604Z,8.38
2017-05-05T06:54:47.273Z,8.41
2017-05-05T06:55:27.978Z,8.38
2017-05-05T06:56:08.693Z,8.37
2017-05-05T06:56:49.374Z,8.33
2017-05-05T06:57:30.080Z,8.36
2017-05-05T06:58:10.638Z,8.36
2017-05-05T06:58:51.328Z,8.41
2017-05-05T06:59:31.986Z,8.41
2017-05-05T07:00:12.689Z,8.41
2017-05-05T07:00:53.264Z,8.37
2017-05-05T07:01:34.933Z,8.33
2017-05-05T07:02:15.629Z,8.28
2017-05-05T07:02:57.350Z,8.28
2017-05-05T07:03:37.909Z,8.3
2017-05-05T07:04:18.625Z,8.38
2017-05-05T07:04:59.262Z,8.41
2017-05-05T07:05:39.961Z,8.44
2017-05-05T07:06:20.513Z,8.41
2017-05-05T07:07:01.171Z,8.49
2017-05-05T07:07:42.900Z,8.51
2017-05-05T07:08:23.599Z,8.46
2017-05-05T07:09:04.178Z,8.46
2017-05-05T07:09:44.905Z,8.45
2017-05-05T07:10:25.618Z,8.49
2017-05-05T07:11:06.321Z,8.48
2017-05-05T07:11:46.866Z,8.48
2017-05-05T07:12:28.556Z,8.52
2017-05-05T07:13:09.206Z,8.48
2017-05-05T07:13:49.858Z,8.48
2017-05-05T07:14:30.604Z,8.53
2017-05-05T07:15:11.268Z,8.48
2017-05-05T07:15:51.923Z,8.48
2017-05-05T07:16:32.623Z,8.46
2017-05-05T07:17:13.268Z,8.46
2017-05-05T07:17:53.972Z,8.51
2017-05-05T07:18:34.552Z,8.49
2017-05-05T07:19:15.306Z,8.6
2017-05-05T07:19:56.048Z,8.49
2017-05-05T07:20:36.706Z,8.52
2017-05-05T07:21:17.343Z,8.48
2017-05-05T07:21:58.001Z,8.45
2017-05-05T07:22:38.648Z,8.46
2017-05-05T07:23:19.415Z,8.41
2017-05-05T07:24:00.174Z,8.37
2017-05-05T07:24:40.833Z,8.36
2017-05-05T07:25:21.470Z,8.41
2017-05-05T07:26:02.126Z,8.38
2017-05-05T07:26:42.826Z,8.37
2017-05-05T07:27:23.522Z,8.42
2017-05-05T07:28:04.093Z,8.48
2017-05-05T07:28:45.758Z,8.45
2017-05-05T07:29:26.456Z,8.42
2017-05-05T07:30:07.153Z,8.41
2017-05-05T07:30:47.745Z,8.41
2017-05-05T07:31:29.398Z,8.41
2017-05-05T07:32:10.099Z,8.46
2017-05-05T07:32:50.794Z,8.38
2017-05-05T07:33:31.368Z,8.41
2017-05-05T07:34:12.120Z,8.38
2017-05-05T07:34:52.807Z,8.44
2017-05-05T07:35:33.504Z,8.45
2017-05-05T07:36:14.083Z,8.42
2017-05-05T07:36:54.847Z,8.44
2017-05-05T07:37:35.590Z,8.41
2017-05-05T07:38:16.261Z,8.34
2017-05-05T07:38:56.995Z,8.38
2017-05-05T07:39:37.633Z,8.37
2017-05-05T07:40:18.306Z,8.37
2017-05-05T07:40:59.059Z,8.31
2017-05-05T07:41:39.823Z,8.31
2017-05-05T07:42:21.491Z,8.41
2017-05-05T07:43:02.250Z,8.31
2017-05-05T07:43:43.004Z,8.36
2017-05-05T07:44:23.758Z,8.33
2017-05-05T07:45:04.425Z,8.31
2017-05-05T07:45:45.164Z,8.44
2017-05-05T07:46:25.937Z,8.33
2017-05-05T07:47:06.681Z,8.37
2017-05-05T07:47:47.419Z,8.41
2017-05-05T07:48:28.062Z,8.45
2017-05-05T07:49:08.756Z,8.44
2017-05-05T07:49:49.504Z,8.42
2017-05-05T07:50:30.160Z,8.41
2017-05-05T07:51:10.907Z,8.37
2017-05-05T07:51:51.592Z,8.44
2017-05-05T07:52:32.289Z,8.38
2017-05-05T07:53:12.899Z,8.37
2017-05-05T07:53:53.591Z,8.45
2017-05-05T07:54:34.269Z,8.55
2017-05-05T07:55:14.960Z,8.51
2017-05-05T07:55:55.688Z,8.48
2017-05-05T07:56:36.383Z,8.56
2017-05-05T07:57:17.024Z,8.53
2017-05-05T07:57:57.594Z,8.51
2017-05-05T07:58:38.238Z,8.55
2017-05-05T07:59:18.883Z,8.58
2017-05-05T07:59:59.468Z,8.55
2017-05-05T08:00:40.107Z,8.49
2017-05-05T08:01:20.836Z,8.56
2017-05-05T08:02:01.493Z,8.6
2017-05-05T08:02:42.144Z,8.64
2017-05-05T08:03:22.795Z,8.63
2017-05-05T08:04:03.446Z,8.66
2017-05-05T08:04:44.104Z,8.64
2017-05-05T08:05:24.752Z,8.67
2017-05-05T08:06:05.407Z,8.69
2017-05-05T08:06:45.969Z,8.71
2017-05-05T08:07:26.645Z,8.71
2017-05-05T08:08:07.323Z,8.69
2017-05-05T08:08:48.021Z,8.81
2017-05-05T08:09:28.570Z,8.76
2017-05-05T08:10:09.247Z,8.85
2017-05-05T08:10:49.932Z,8.74
2017-05-05T08:11:30.490Z,8.7
2017-05-05T08:12:11.205Z,8.7
2017-05-05T08:12:51.834Z,8.71
2017-05-05T08:13:32.437Z,8.76
2017-05-05T08:14:13.059Z,8.79
2017-05-05T08:14:53.699Z,8.78
2017-05-05T08:15:34.274Z,8.84
2017-05-05T08:16:14.906Z,8.81
2017-05-05T08:16:55.658Z,8.94
2017-05-05T08:17:36.307Z,8.95
2017-05-05T08:18:16.956Z,8.97
2017-05-05T08:18:57.618Z,9
2017-05-05T08:19:38.262Z,9
2017-05-05T08:20:18.924Z,9.04
2017-05-05T08:20:59.577Z,9.06
2017-05-05T08:21:40.227Z,9.08
2017-05-05T08:22:20.879Z,9.13
2017-05-05T08:23:01.682Z,9.19
2017-05-05T08:23:42.435Z,9.19
2017-05-05T08:24:23.187Z,9.19
2017-05-05T08:25:03.956Z,9.26
2017-05-05T08:25:44.800Z,9.25
2017-05-05T08:26:25.383Z,9.32
2017-05-05T08:27:06.133Z,9.31
2017-05-05T08:27:46.812Z,9.4
2017-05-05T08:28:27.542Z,9.54
2017-05-05T08:29:08.106Z,9.54
2017-05-05T08:29:48.831Z,9.59
2017-05-05T08:30:29.527Z,9.68
2017-05-05T08:31:11.258Z,9.64
2017-05-05T08:31:51.820Z,9.76
2017-05-05T08:32:32.590Z,9.77
2017-05-05T08:33:13.273Z,9.94
2017-05-05T08:33:53.963Z,9.86
2017-05-05T08:34:34.551Z,9.95
2017-05-05T08:35:15.486Z,9.95
2017-05-05T08:35:56.207Z,9.94
2017-05-05T08:36:37.039Z,10.01
2017-05-05T08:37:17.752Z,10.12
2017-05-05T08:37:58.514Z,10.05
2017-05-05T08:38:40.291Z,10.13
2017-05-05T08:39:20.993Z,10.12
2017-05-05T08:40:01.635Z,10.02
2017-05-05T08:40:42.388Z,9.98
2017-05-05T08:41:23.031Z,10.01
2017-05-05T08:42:03.747Z,10.01
2017-05-05T08:42:44.396Z,9.94
2017-05-05T08:43:25.107Z,9.97
2017-05-05T08:44:05.840Z,9.98
2017-05-05T08:44:46.641Z,9.94
2017-05-05T08:45:27.359Z,9.98
2017-05-05T08:46:08.166Z,9.95
2017-05-05T08:46:48.720Z,9.84
2017-05-05T08:47:29.429Z,9.91
2017-05-05T08:48:10.139Z,9.89
2017-05-05T08:48:50.729Z,9.91
2017-05-05T08:49:31.446Z,9.76
2017-05-05T08:50:14.234Z,9.68
2017-05-05T08:50:55.419Z,9.64
2017-05-05T08:51:36.423Z,9.66
2017-05-05T08:52:17.218Z,9.64
2017-05-05T08:52:57.887Z,9.72
2017-05-05T08:53:38.710Z,9.68
2017-05-05T08:54:19.404Z,9.66
2017-05-05T08:55:00.408Z,9.54
2017-05-05T08:55:41.060Z,9.59
2017-05-05T08:56:21.895Z,9.54
2017-05-05T08:57:02.719Z,9.54
2017-05-05T08:57:43.368Z,9.61
2017-05-05T08:58:24.068Z,9.56
2017-05-05T08:59:04.808Z,9.54
2017-05-05T08:59:45.589Z,9.58
2017-05-05T09:00:26.302Z,9.54
2017-05-05T09:01:07.092Z,9.51
2017-05-05T09:01:47.848Z,9.55
2017-05-05T09:02:28.552Z,9.55
2017-05-05T09:03:09.271Z,9.66
2017-05-05T09:03:49.986Z,9.61
2017-05-05T09:04:30.770Z,9.66
2017-05-05T09:05:11.474Z,9.64